Hyannis, MA

3:04 AM EDT on October 26, 2014 (GMT -0400)
Cape Cod Coast Guard Air Station | Change Station
CLOSE
Current Station
Airport
Location: Cape Cod CGAS,
Elevation: 131 ft
Nearby Weather Stations

Elev 131 ft 41.66 °N, 70.52 °W | Updated 9 minutes ago

Mostly Cloudy
Mostly Cloudy
59 °F
Feels Like 59 °F
N
13
Wind Variable Wind from West
Gusts 21 mph

Today
High -- | Low -- °F
--% Chance of Precip.
Yesterday
High -- | Low -- °F
Precip. -- in
7:05 AM 5:43 PM
Waxing Crescent, 6% visible
Pressure 29.48 in
Visibility 10.0 miles
Clouds Overcast 10000 ft
Dew Point 48 °F
Humidity 67%
Rainfall 0.00 in
Snow Depth Not available.
UV 0 out of 12
Pollen 1.10 out of 12
Ozone Good
Flu Activity Sporadic
METAR KFMH 260655Z AUTO 27011G18KT 10SM OVC100 15/09 A2948 RMK AO2

More Conditions Fewer Conditions

Pressure 29.48 in
Visibility 10.0 miles
Clouds Overcast 10000 ft
Dew Point 48 °F
Humidity 67%
Rainfall 0.00 in
Snow Depth Not available.
UV 0 out of 12
Pollen 1.10 out of 12
Ozone Good
Flu Activity Sporadic
METAR KFMH 260655Z AUTO 27011G18KT 10SM OVC100 15/09 A2948 RMK AO2

More Conditions Fewer Conditions

10-Day Weather Forecast

Almanac

Astronomy

Oct. 26, 2014 Rise Set
Actual Time 7:05 AM EDT 5:43 PM EDT
Civil Twilight 6:37 AM EDT 6:12 PM EDT
Nautical Twilight 6:04 AM EDT 6:44 PM EDT
Astronomical Twilight 5:32 AM EDT 7:16 PM EDT
Moon 9:42 AM EDT 7:51 PM EDT
Length of Visible Light 11h 34m
Length of Day
10h 37m
Tomorrow will be 2m 33s shorter.
Waxing Crescent, 6% of the Moon is Illuminated
Today
Waxing Crescent
Oct 30
First Quarter
Nov 6
Full
Nov 14
Last Quarter
Nov 22
New

Today's Extremes

State Highs State Lows

Community

WunderPhotos

Upload Photos

1,765,115 photos uploaded!

Nearby

Air Quality

  Air Quality AQ Index Pollutant
Yesterday Good
OZONE
Current Good
OZONE
Sunday Good
PM2.5
Sunday Good
OZONE

Snow Depth

Station Depth Elevation
No new snow has been reported.

Earthquake Activity

City Distance Mag. Time & Date
No recent earthquake activity has been reported nearby.
Minimum magnitude displayed is 2.5.

Coastal Water Temperatures

Place Temperature
Nantucket Island, MA 57.9 °F
Woods Hole, MA 60.1 °F
Fall River, MA 60.1 °F
Boston, MA 55.0 °F

Nearby Weather Stations